Friona, TX (79035)

12:47 AM CDT on July 29, 2014 (GMT -0500)
RAWS BOOTLEG TX US (MBLGT2) Elev 4058 ft | 34.83 °N, 102.81 °W | Change Station

Current weather conditions updated 44 minutes ago

Scattered Clouds
Scattered Clouds
67 °F
Feels Like 67 °F
N
7
Wind Variable Wind from ESE
Gusts 11.0 mph

Today is forecast to be Warmer than yesterday. Scattered thunderstorms possible.

Today
High -- | Low -- °F
--% Chance of Precip.
Yesterday
High -- | Low -- °F
Precip. -- in
6:58 AM 8:55 PM
Waxing Crescent, 5% visible
Pressure 30.32 in
Visibility 10.0 miles
Clouds Few 6500 ft
Scattered Clouds 7000 ft
Dew Point 66 °F
Humidity 95%
Rainfall 0.00 in
Snow Depth Not available.
UV 0 out of 12
Pollen 3.50 out of 12
Air Quality Not available.
Flu Activity Not available.
METAR KCVN 290415Z AUTO 11006KT 10SM FEW065 SCT070 21/18 A3032 RMK AO1

More Conditions Fewer Conditions

Pressure 30.32 in
Visibility 10.0 miles
Clouds Few 6500 ft
Scattered Clouds 7000 ft
Dew Point 66 °F
Humidity 95%
Rainfall 0.00 in
Snow Depth Not available.
UV 0 out of 12
Pollen 3.50 out of 12
Air Quality Not available.
Flu Activity Not available.
METAR KCVN 290415Z AUTO 11006KT 10SM FEW065 SCT070 21/18 A3032 RMK AO1

More Conditions Fewer Conditions

Nowcast | as of 12:08 am CDT on July 29, 2014

Through 1 am central time...light rain showers will continue to move eastward through the western South Plains. Rainfall accumulations are expected to remain light through this time frame...however...additional rainfall will be possible later into the overnight period as additional showers and possibly a few thunderstorms move into the area.

×

10-Day Weather Forecast

Almanac

Astronomy

Jul. 29, 2014 Rise Set
Actual Time 6:58 AM CDT 8:55 PM CDT
Civil Twilight 6:31 AM CDT 9:23 PM CDT
Nautical Twilight 5:57 AM CDT 9:56 PM CDT
Astronomical Twilight 5:21 AM CDT 10:32 PM CDT
Moon 9:28 AM CDT 10:18 PM CDT
Length of Visible Light 14h 52m
Length of Day
13h 56m
Tomorrow will be 1m 33s shorter.
Waxing Crescent, 5% of the Moon is Illuminated
Today
Waxing Crescent
Aug 3
First Quarter
Aug 10
Full
Aug 17
Last Quarter
Aug 25
New

Today's Extremes

State Highs State Lows

Community

WunderPhotos

Upload Photos

1,738,641 photos uploaded!

Nearby

Snow Depth

Station Depth Elevation
No new snow has been reported.

Earthquake Activity

City Distance Mag. Time & Date
No recent earthquake activity has been reported nearby.
Minimum magnitude displayed is 2.5.

Coastal Water Temperatures

Place Temperature
No Stations Reporting

Nearby Weather Stations

Station Location Temp. Dew Point Humidity Wind Precip. Elev Updated Type
WT_Meso Friona 2NE, Friona, TX 69 °F 63 °F 82% East  at  6 mph 0.00 in / hr 4004 ft 10:55 PM CDT MADIS
RAWS BOOTLEG TX, Friona, TX 67 °F 66 °F 95% ESE  at  7 mph 0.00 in / hr 4058 ft 12:03 AM CDT MADIS
West Bedford SMB, Dimmitt, TX 66.4 °F 66 °F 99% ESE  at  2.9 mph 0.00 in / hr 3904 ft 12:47 AM CDT Rapid Fire

Show More Stations Show Fewer Stations